createdAt,value
2023-01-18T00:00:21.780Z,84.80
2023-01-18T00:02:49.273Z,84.60
2023-01-18T00:05:16.234Z,84.65
2023-01-18T00:07:43.018Z,84.38
2023-01-18T00:10:10.229Z,84.68
2023-01-18T00:12:36.967Z,84.43
2023-01-18T00:15:04.744Z,84.43
2023-01-18T00:17:31.461Z,84.93
2023-01-18T00:19:58.197Z,84.69
2023-01-18T00:22:24.907Z,84.91
2023-01-18T00:24:51.596Z,84.53
2023-01-18T00:27:18.329Z,84.42
2023-01-18T00:29:45.138Z,84.49
2023-01-18T00:32:14.275Z,83.90
2023-01-18T00:34:41.761Z,84.15
2023-01-18T00:37:08.461Z,84.09
2023-01-18T00:39:35.154Z,83.77
2023-01-18T00:42:20.427Z,83.75
2023-01-18T00:44:47.170Z,84.01
2023-01-18T00:47:13.958Z,84.20
2023-01-18T00:49:40.780Z,83.77
2023-01-18T00:52:07.670Z,83.75
2023-01-18T00:54:34.459Z,83.89
2023-01-18T00:57:01.250Z,83.67
2023-01-18T00:59:28.053Z,83.71
2023-01-18T01:01:56.469Z,83.54
2023-01-18T01:04:42.199Z,83.64
2023-01-18T01:07:09.019Z,83.86
2023-01-18T01:09:35.851Z,83.61
2023-01-18T01:12:21.062Z,83.58
2023-01-18T01:15:06.383Z,83.27
2023-01-18T01:17:53.839Z,83.21
2023-01-18T01:20:39.706Z,83.05
2023-01-18T01:23:33.279Z,83.18
2023-01-18T01:26:03.444Z,83.09
2023-01-18T01:28:30.751Z,82.83
2023-01-18T01:31:01.106Z,82.90
2023-01-18T01:33:28.776Z,83.39
2023-01-18T01:35:59.191Z,83.14
2023-01-18T01:38:25.971Z,83.01
2023-01-18T01:40:58.173Z,83.22
2023-01-18T01:43:56.933Z,82.79
2023-01-18T01:46:49.157Z,83.62
2023-01-18T01:49:43.210Z,83.07
2023-01-18T01:52:15.379Z,83.33
2023-01-18T01:54:46.696Z,83.85
2023-01-18T01:58:07.709Z,83.48
2023-01-18T02:00:37.127Z,83.88
2023-01-18T02:03:08.686Z,84.21
2023-01-18T02:05:43.670Z,84.49
2023-01-18T02:08:14.062Z,84.56
2023-01-18T02:10:43.717Z,84.97
2023-01-18T02:13:13.707Z,84.63
2023-01-18T02:16:14.721Z,84.99
2023-01-18T02:19:00.705Z,84.46
2023-01-18T02:21:35.719Z,84.41
2023-01-18T02:24:46.359Z,84.48
2023-01-18T02:27:28.723Z,84.23
2023-01-18T02:30:29.714Z,84.37
2023-01-18T02:33:04.577Z,84.35
2023-01-18T02:35:49.714Z,84.81
2023-01-18T02:38:27.673Z,84.74
2023-01-18T02:48:34.354Z,84.39
2023-01-18T02:51:01.065Z,84.36
2023-01-18T02:53:27.860Z,84.51
2023-01-18T02:56:01.664Z,84.62
2023-01-18T02:58:32.338Z,84.93
2023-01-18T03:01:17.353Z,85.16
2023-01-18T03:03:44.721Z,84.87
2023-01-18T03:06:11.434Z,85.12
2023-01-18T03:08:44.366Z,84.81
2023-01-18T03:11:35.452Z,84.98
2023-01-18T03:14:35.318Z,84.74
2023-01-18T03:17:11.113Z,85.02
2023-01-18T03:20:05.470Z,85.30
2023-01-18T03:22:55.509Z,85.32
2023-01-18T03:25:29.361Z,84.86
2023-01-18T03:28:15.986Z,85.19
2023-01-18T03:31:01.545Z,85.18
2023-01-18T03:33:43.801Z,84.82
2023-01-18T03:36:25.744Z,84.98
2023-01-18T03:38:58.824Z,84.55
2023-01-18T03:41:27.639Z,84.46
2023-01-18T03:43:55.248Z,84.46
2023-01-18T03:46:22.464Z,84.60
2023-01-18T03:48:49.333Z,84.93
2023-01-18T03:51:47.476Z,84.91
2023-01-18T03:54:26.894Z,84.80
2023-01-18T03:57:08.798Z,84.96
2023-01-18T03:59:36.837Z,84.52
2023-01-18T04:02:04.881Z,84.72
2023-01-18T04:04:31.651Z,84.87
2023-01-18T04:06:58.382Z,84.80
2023-01-18T04:09:25.980Z,84.71
2023-01-18T04:11:53.182Z,84.78
2023-01-18T04:14:20.179Z,85.19
2023-01-18T04:16:46.961Z,85.34
2023-01-18T04:19:13.772Z,85.26
2023-01-18T04:21:40.487Z,85.30
2023-01-18T04:24:07.882Z,85.44
2023-01-18T04:26:34.586Z,85.42
2023-01-18T04:29:01.536Z,85.36
2023-01-18T04:31:28.422Z,85.55
2023-01-18T04:33:55.188Z,85.69
2023-01-18T04:36:22.497Z,85.89
2023-01-18T04:38:54.138Z,85.33
2023-01-18T04:41:21.354Z,85.15
2023-01-18T04:43:48.034Z,85.28
2023-01-18T04:46:15.530Z,85.11
2023-01-18T04:48:42.855Z,85.11
2023-01-18T04:51:13.920Z,85.21
2023-01-18T04:53:42.000Z,85.40
2023-01-18T04:56:08.788Z,85.45
2023-01-18T04:58:35.494Z,85.35
2023-01-18T05:01:03.685Z,85.01
2023-01-18T05:03:30.525Z,85.12
2023-01-18T05:05:57.495Z,84.91
2023-01-18T05:08:24.229Z,85.18
2023-01-18T05:10:51.125Z,85.28
2023-01-18T05:13:17.841Z,85.13
2023-01-18T05:15:44.510Z,85.30
2023-01-18T05:18:11.230Z,85.35
2023-01-18T05:20:38.004Z,85.83
2023-01-18T05:23:10.838Z,85.66
2023-01-18T05:25:39.275Z,85.90
2023-01-18T05:28:07.540Z,85.74
2023-01-18T05:30:38.026Z,85.97
2023-01-18T05:33:04.978Z,86.35
2023-01-18T05:35:32.245Z,86.43
2023-01-18T05:37:58.935Z,86.08
2023-01-18T05:40:25.626Z,86.56
2023-01-18T05:42:52.316Z,86.08
2023-01-18T05:45:20.048Z,86.80
2023-01-18T05:47:46.849Z,86.69
2023-01-18T05:50:13.555Z,86.71
2023-01-18T05:52:40.261Z,86.86
2023-01-18T05:55:07.881Z,86.98
2023-01-18T05:57:34.573Z,87.26
2023-01-18T06:00:03.220Z,87.06
2023-01-18T06:02:38.222Z,86.96
2023-01-18T06:05:05.636Z,87.00
2023-01-18T06:07:32.519Z,86.98
2023-01-18T06:09:59.314Z,87.19
2023-01-18T06:12:26.021Z,87.07
2023-01-18T06:14:52.689Z,87.47
2023-01-18T06:17:19.420Z,87.25
2023-01-18T06:19:48.193Z,87.09
2023-01-18T06:22:16.019Z,87.17
2023-01-18T06:24:42.794Z,87.26
2023-01-18T06:27:09.717Z,87.25
2023-01-18T06:29:36.509Z,87.31
2023-01-18T06:32:03.248Z,87.48
2023-01-18T06:34:30.469Z,87.23
2023-01-18T06:36:57.342Z,86.93
2023-01-18T06:39:24.099Z,86.97
2023-01-18T06:41:50.819Z,86.88
2023-01-18T06:44:17.683Z,87.00
2023-01-18T06:46:44.839Z,87.20
2023-01-18T06:49:12.309Z,86.70
2023-01-18T06:51:39.429Z,86.71
2023-01-18T06:54:06.420Z,86.89
2023-01-18T06:56:33.112Z,86.90
2023-01-18T06:59:01.208Z,87.01
2023-01-18T07:01:28.073Z,86.69
2023-01-18T07:03:55.101Z,86.71
2023-01-18T07:06:21.782Z,86.99
2023-01-18T07:08:49.177Z,86.71
2023-01-18T07:11:15.945Z,86.74
2023-01-18T07:13:43.858Z,86.72
2023-01-18T07:16:18.176Z,86.64
2023-01-18T07:18:46.947Z,86.58
2023-01-18T07:21:15.271Z,86.61
2023-01-18T07:23:42.696Z,86.25
2023-01-18T07:26:17.403Z,86.28
2023-01-18T07:28:44.812Z,86.78
2023-01-18T07:31:11.501Z,86.60
2023-01-18T07:33:38.299Z,86.80
2023-01-18T07:36:06.491Z,86.68
2023-01-18T07:38:33.754Z,86.85
2023-01-18T07:41:10.815Z,86.65
2023-01-18T07:43:37.849Z,86.90
2023-01-18T07:46:05.684Z,87.17
2023-01-18T07:48:32.804Z,86.79
2023-01-18T07:51:04.397Z,87.04
2023-01-18T07:53:32.274Z,86.83
2023-01-18T07:56:02.903Z,87.05
2023-01-18T07:58:29.847Z,87.11
2023-01-18T08:01:02.709Z,86.96
2023-01-18T08:03:29.484Z,86.66
2023-01-18T08:05:58.924Z,86.70
2023-01-18T08:08:27.694Z,86.78
2023-01-18T08:10:58.580Z,86.52
2023-01-18T08:13:25.732Z,87.38
2023-01-18T08:15:52.794Z,87.08
2023-01-18T08:18:19.700Z,87.44
2023-01-18T08:20:47.309Z,87.26
2023-01-18T08:23:14.122Z,86.99
2023-01-18T08:25:41.024Z,86.76
2023-01-18T08:28:07.802Z,86.71
2023-01-18T08:30:39.647Z,86.53
2023-01-18T08:33:06.438Z,86.44
2023-01-18T08:35:35.908Z,85.99
2023-01-18T08:38:02.717Z,85.57
2023-01-18T08:40:29.440Z,85.76
2023-01-18T08:43:00.363Z,85.71
2023-01-18T08:45:27.401Z,85.39
2023-01-18T08:48:02.381Z,85.43
2023-01-18T08:50:32.152Z,85.07
2023-01-18T08:53:00.442Z,84.87
2023-01-18T08:55:29.686Z,84.72
2023-01-18T08:57:57.789Z,84.77
2023-01-18T09:00:27.018Z,84.87
2023-01-18T09:02:54.005Z,84.68
2023-01-18T09:05:21.119Z,84.24
2023-01-18T09:07:48.006Z,84.14
2023-01-18T09:10:15.033Z,83.96
2023-01-18T09:12:41.833Z,83.86
2023-01-18T09:15:08.818Z,83.64
2023-01-18T09:17:35.619Z,83.59
2023-01-18T09:20:03.231Z,83.36
2023-01-18T09:22:29.970Z,83.36
2023-01-18T09:24:57.649Z,83.60
2023-01-18T09:27:24.439Z,83.50
2023-01-18T09:29:52.443Z,83.54
2023-01-18T09:32:20.084Z,83.67
2023-01-18T09:34:50.917Z,83.54
2023-01-18T09:37:19.184Z,83.17
2023-01-18T09:39:51.984Z,83.05
2023-01-18T09:42:21.997Z,83.57
2023-01-18T09:44:53.381Z,83.43
2023-01-18T09:47:22.069Z,83.24
2023-01-18T09:49:59.678Z,83.01
2023-01-18T09:52:32.499Z,83.20
2023-01-18T09:55:17.597Z,82.80
2023-01-18T09:58:01.015Z,82.75
2023-01-18T10:00:29.735Z,82.99
2023-01-18T10:03:04.661Z,83.30
2023-01-18T10:05:33.457Z,83.35
2023-01-18T10:08:15.412Z,83.46
2023-01-18T10:11:02.456Z,83.14
2023-01-18T10:13:38.223Z,83.57
2023-01-18T10:16:10.247Z,83.17
2023-01-18T10:18:45.825Z,83.48
2023-01-18T10:21:18.900Z,83.65
2023-01-18T10:23:48.732Z,83.47
2023-01-18T10:26:20.448Z,83.38
2023-01-18T10:29:16.825Z,83.25
2023-01-18T10:32:03.224Z,83.00
2023-01-18T10:34:32.861Z,83.07
2023-01-18T10:37:18.526Z,82.60
2023-01-18T10:39:51.107Z,82.51
2023-01-18T10:42:22.993Z,82.46
2023-01-18T10:44:49.905Z,82.20
2023-01-18T10:47:17.855Z,82.04
2023-01-18T10:49:45.755Z,82.22
2023-01-18T10:52:29.786Z,81.96
2023-01-18T10:55:01.872Z,81.80
2023-01-18T10:57:37.293Z,81.80
2023-01-18T11:00:12.621Z,81.45
2023-01-18T11:02:39.623Z,80.88
2023-01-18T11:05:07.027Z,80.86
2023-01-18T11:07:34.124Z,80.88
2023-01-18T11:10:06.668Z,80.51
2023-01-18T11:12:41.408Z,80.30
2023-01-18T11:15:14.439Z,80.15
2023-01-18T11:17:42.675Z,80.03
2023-01-18T11:20:21.896Z,79.61
2023-01-18T11:22:56.132Z,79.38
2023-01-18T11:25:22.983Z,79.11
2023-01-18T11:27:49.716Z,79.34
2023-01-18T11:30:23.354Z,79.28
2023-01-18T11:32:51.190Z,78.81
2023-01-18T11:35:23.222Z,78.86
2023-01-18T11:37:50.015Z,78.55
2023-01-18T11:40:20.615Z,78.30
2023-01-18T11:42:48.133Z,78.31
2023-01-18T11:45:16.285Z,78.27
2023-01-18T11:48:14.950Z,77.98
2023-01-18T11:50:45.547Z,77.97
2023-01-18T11:53:36.146Z,77.97
2023-01-18T11:56:33.752Z,77.88
2023-01-18T11:59:02.022Z,78.04
2023-01-18T12:02:06.762Z,77.53
2023-01-18T12:04:33.613Z,77.30
2023-01-18T12:07:45.896Z,77.25
2023-01-18T12:10:21.945Z,77.24
2023-01-18T12:13:27.781Z,77.37
2023-01-18T12:16:01.179Z,77.07
2023-01-18T12:18:42.639Z,77.45
2023-01-18T12:21:32.365Z,77.03
2023-01-18T12:24:18.033Z,76.76
2023-01-18T12:26:50.078Z,76.69
2023-01-18T12:37:02.519Z,76.66
2023-01-18T12:39:53.180Z,76.54
2023-01-18T12:42:26.014Z,76.71
2023-01-18T12:45:04.427Z,76.35
2023-01-18T12:48:07.986Z,76.08
2023-01-18T12:50:36.783Z,76.67
2023-01-18T12:53:10.639Z,76.64
2023-01-18T12:55:37.243Z,76.95
2023-01-18T12:58:04.206Z,76.69
2023-01-18T13:00:39.168Z,76.46
2023-01-18T13:03:16.866Z,76.21
2023-01-18T13:06:00.376Z,76.17
2023-01-18T13:08:36.217Z,76.05
2023-01-18T13:11:17.372Z,76.19
2023-01-18T13:13:45.115Z,76.21
2023-01-18T13:16:18.893Z,76.20
2023-01-18T13:18:51.952Z,76.42
2023-01-18T13:21:28.734Z,76.44
2023-01-18T13:24:00.096Z,76.03
2023-01-18T13:26:30.586Z,76.11
2023-01-18T13:29:10.320Z,76.63
2023-01-18T13:31:37.583Z,76.24
2023-01-18T13:34:04.589Z,76.38
2023-01-18T13:36:45.051Z,76.49
2023-01-18T13:39:14.931Z,76.51
2023-01-18T13:42:04.632Z,76.37
2023-01-18T13:44:45.978Z,76.28
2023-01-18T13:47:39.673Z,76.31
2023-01-18T13:50:25.253Z,76.25
2023-01-18T13:53:13.739Z,76.41
2023-01-18T13:55:40.729Z,76.66
2023-01-18T13:58:30.124Z,76.60
2023-01-18T14:00:59.014Z,76.57
2023-01-18T14:03:27.541Z,76.35
2023-01-18T14:05:54.386Z,76.30
2023-01-18T14:08:23.169Z,76.30
2023-01-18T14:10:53.010Z,76.11
2023-01-18T14:13:45.438Z,76.18
2023-01-18T14:16:16.690Z,76.31
2023-01-18T14:19:00.957Z,75.97
2023-01-18T14:21:31.907Z,75.86
2023-01-18T14:24:37.343Z,76.14
2023-01-18T14:27:04.902Z,75.98
2023-01-18T14:29:47.858Z,76.04
2023-01-18T14:32:21.764Z,76.38
2023-01-18T14:35:23.964Z,75.92
2023-01-18T14:37:53.349Z,76.12
2023-01-18T14:40:22.947Z,76.18
2023-01-18T14:42:57.031Z,75.97
2023-01-18T14:45:29.134Z,76.09
2023-01-18T14:48:17.469Z,76.12
2023-01-18T14:50:46.119Z,76.53
2023-01-18T14:53:16.750Z,76.34
2023-01-18T14:55:43.696Z,76.55
2023-01-18T14:58:17.674Z,76.45
2023-01-18T15:00:47.819Z,76.75
2023-01-18T15:03:27.565Z,77.01
2023-01-18T15:06:12.489Z,77.04
2023-01-18T15:08:40.038Z,77.24
2023-01-18T15:11:07.115Z,77.13
2023-01-18T15:13:38.127Z,77.23
2023-01-18T15:16:05.147Z,76.84
2023-01-18T15:18:32.228Z,76.63
2023-01-18T15:21:00.811Z,76.73
2023-01-18T15:23:27.578Z,76.74
2023-01-18T15:25:54.562Z,76.61
2023-01-18T15:28:24.269Z,76.71
2023-01-18T15:38:27.036Z,76.20
2023-01-18T15:41:05.845Z,76.14
2023-01-18T15:43:42.605Z,75.98
2023-01-18T15:46:12.154Z,76.20
2023-01-18T15:48:59.220Z,76.20
2023-01-18T15:51:45.042Z,76.29
2023-01-18T15:54:19.432Z,75.97
2023-01-18T15:56:46.145Z,75.97
2023-01-18T15:59:17.120Z,75.94
2023-01-18T16:01:46.477Z,75.94
2023-01-18T16:04:13.691Z,76.15
2023-01-18T16:06:40.408Z,76.33
2023-01-18T16:09:12.479Z,75.93
2023-01-18T16:11:47.665Z,76.03
2023-01-18T16:14:27.913Z,75.87
2023-01-18T16:16:55.857Z,75.95
2023-01-18T16:19:34.874Z,76.25
2023-01-18T16:22:06.099Z,76.17
2023-01-18T16:25:01.351Z,76.21
2023-01-18T16:27:30.453Z,76.25
2023-01-18T16:30:03.138Z,76.13
2023-01-18T16:32:37.042Z,76.05
2023-01-18T16:35:13.719Z,76.27
2023-01-18T16:37:47.064Z,76.39
2023-01-18T16:40:18.802Z,76.31
2023-01-18T16:43:02.130Z,76.21
2023-01-18T16:45:29.658Z,76.40
2023-01-18T16:47:56.481Z,76.42
2023-01-18T16:50:23.698Z,76.53
2023-01-18T16:52:50.402Z,76.59
2023-01-18T16:55:18.101Z,76.24
2023-01-18T16:57:45.071Z,75.97
2023-01-18T17:00:12.579Z,76.34
2023-01-18T17:02:39.616Z,76.35
2023-01-18T17:05:07.114Z,76.45
2023-01-18T17:07:33.910Z,76.73
2023-01-18T17:10:02.431Z,76.73
2023-01-18T17:12:29.142Z,76.58
2023-01-18T17:14:56.067Z,76.32
2023-01-18T17:17:22.828Z,76.39
2023-01-18T17:19:51.718Z,76.40
2023-01-18T17:22:18.448Z,76.29
2023-01-18T17:24:46.758Z,76.49
2023-01-18T17:27:15.012Z,76.27
2023-01-18T17:29:41.716Z,76.26
2023-01-18T17:32:09.567Z,76.46
2023-01-18T17:34:36.325Z,76.36
2023-01-18T17:37:03.632Z,76.97
2023-01-18T17:39:42.660Z,76.75
2023-01-18T17:42:25.897Z,76.81
2023-01-18T17:45:03.043Z,76.60
2023-01-18T17:47:30.685Z,76.82
2023-01-18T17:49:57.454Z,76.96
2023-01-18T17:52:24.780Z,76.43
2023-01-18T17:54:51.463Z,76.54
2023-01-18T17:57:18.507Z,76.68
2023-01-18T17:59:45.263Z,76.90
2023-01-18T18:02:12.056Z,77.13
2023-01-18T18:04:38.978Z,76.98
2023-01-18T18:07:05.655Z,77.06
2023-01-18T18:09:32.658Z,77.25
2023-01-18T18:11:59.556Z,77.44
2023-01-18T18:14:26.359Z,77.36
2023-01-18T18:16:53.086Z,77.46
2023-01-18T18:19:19.982Z,77.28
2023-01-18T18:21:46.860Z,76.78
2023-01-18T18:24:13.778Z,77.23
2023-01-18T18:26:40.757Z,77.70
2023-01-18T18:29:07.969Z,77.63
2023-01-18T18:31:34.955Z,78.17
2023-01-18T18:34:01.863Z,78.22
2023-01-18T18:36:28.822Z,78.21
2023-01-18T18:38:55.652Z,78.06
2023-01-18T18:41:22.359Z,77.98
2023-01-18T18:43:49.250Z,78.19
2023-01-18T18:46:16.054Z,77.97
2023-01-18T18:48:43.154Z,78.11
2023-01-18T18:51:09.981Z,78.27
2023-01-18T18:53:39.704Z,78.52
2023-01-18T18:56:10.202Z,78.42
2023-01-18T18:58:38.242Z,78.18
2023-01-18T19:01:05.796Z,78.29
2023-01-18T19:03:33.202Z,78.48
2023-01-18T19:06:00.455Z,78.56
2023-01-18T19:08:27.403Z,78.52
2023-01-18T19:10:54.127Z,78.48
2023-01-18T19:13:21.191Z,78.77
2023-01-18T19:15:48.625Z,78.62
2023-01-18T19:18:15.628Z,78.73
2023-01-18T19:20:42.434Z,79.17
2023-01-18T19:23:09.592Z,79.04
2023-01-18T19:25:39.813Z,78.90
2023-01-18T19:28:06.733Z,79.10
2023-01-18T19:30:33.730Z,79.13
2023-01-18T19:33:00.823Z,79.06
2023-01-18T19:35:27.899Z,79.07
2023-01-18T19:37:54.831Z,79.85
2023-01-18T19:40:22.205Z,79.79
2023-01-18T19:42:54.991Z,80.22
2023-01-18T19:45:29.067Z,79.92
2023-01-18T19:47:58.799Z,80.39
2023-01-18T19:50:26.496Z,80.77
2023-01-18T19:52:53.223Z,80.98
2023-01-18T19:55:21.839Z,81.02
2023-01-18T19:57:49.499Z,81.50
2023-01-18T20:00:16.996Z,81.50
2023-01-18T20:02:44.255Z,82.02
2023-01-18T20:05:11.177Z,82.09
2023-01-18T20:07:39.296Z,81.94
2023-01-18T20:10:07.266Z,82.15
2023-01-18T20:12:34.336Z,82.24
2023-01-18T20:15:01.486Z,82.19
2023-01-18T20:17:28.407Z,82.31
2023-01-18T20:19:55.149Z,82.25
2023-01-18T20:22:22.616Z,82.60
2023-01-18T20:24:49.372Z,82.76
2023-01-18T20:27:17.354Z,82.78
2023-01-18T20:29:44.719Z,82.76
2023-01-18T20:32:16.948Z,82.56
2023-01-18T20:34:46.542Z,82.85
2023-01-18T20:37:13.482Z,82.96
2023-01-18T20:39:40.443Z,83.01
2023-01-18T20:42:07.314Z,82.76
2023-01-18T20:44:34.462Z,83.04
2023-01-18T20:47:01.662Z,83.24
2023-01-18T20:49:43.512Z,82.94
2023-01-18T20:52:10.225Z,82.86
2023-01-18T20:54:37.856Z,82.94
2023-01-18T20:57:05.674Z,83.12
2023-01-18T20:59:32.597Z,82.72
2023-01-18T21:01:59.471Z,83.05
2023-01-18T21:04:26.266Z,83.09
2023-01-18T21:06:52.966Z,83.13
2023-01-18T21:09:19.754Z,83.09
2023-01-18T21:11:46.450Z,83.03
2023-01-18T21:14:13.266Z,83.33
2023-01-18T21:16:40.423Z,83.47
2023-01-18T21:19:07.267Z,83.10
2023-01-18T21:21:34.056Z,82.90
2023-01-18T21:24:01.080Z,82.91
2023-01-18T21:26:27.860Z,83.32
2023-01-18T21:28:54.857Z,83.47
2023-01-18T21:31:21.845Z,83.54
2023-01-18T21:33:49.175Z,83.31
2023-01-18T21:36:20.317Z,83.46
2023-01-18T21:38:47.087Z,83.56
2023-01-18T21:41:52.403Z,83.68
2023-01-18T21:44:37.681Z,83.79
2023-01-18T21:47:04.505Z,84.02
2023-01-18T21:52:56.130Z,84.07
2023-01-18T21:55:23.125Z,84.38
2023-01-18T21:58:09.884Z,83.80
2023-01-18T22:00:40.531Z,83.72
2023-01-18T22:03:07.390Z,84.06
2023-01-18T22:05:34.174Z,84.21
2023-01-18T22:08:01.187Z,84.13
2023-01-18T22:10:28.192Z,83.98
2023-01-18T22:12:54.963Z,83.85
2023-01-18T22:15:23.111Z,83.72
2023-01-18T22:17:49.817Z,84.30
2023-01-18T22:20:16.882Z,84.19
2023-01-18T22:22:43.588Z,84.15
2023-01-18T22:25:10.387Z,83.94
2023-01-18T22:27:37.186Z,83.45
2023-01-18T22:30:04.806Z,83.06
2023-01-18T22:32:31.505Z,82.75
2023-01-18T22:34:58.279Z,82.71
2023-01-18T22:37:26.027Z,82.59
2023-01-18T22:39:52.877Z,82.62
2023-01-18T22:42:19.560Z,82.30
2023-01-18T22:44:46.225Z,82.05
2023-01-18T22:47:12.906Z,82.20
2023-01-18T22:49:39.615Z,81.83
2023-01-18T22:52:06.806Z,81.54
2023-01-18T22:54:33.506Z,81.26
2023-01-18T22:57:00.205Z,81.23
2023-01-18T22:59:26.909Z,80.96
2023-01-18T23:01:53.603Z,80.84
2023-01-18T23:04:20.610Z,81.13
2023-01-18T23:06:48.182Z,81.19
2023-01-18T23:09:15.844Z,81.11
2023-01-18T23:11:42.656Z,80.91
2023-01-18T23:14:28.174Z,80.75
2023-01-18T23:17:13.643Z,80.93
2023-01-18T23:19:40.336Z,80.88
2023-01-18T23:22:07.417Z,80.63
2023-01-18T23:24:36.002Z,80.40
2023-01-18T23:27:04.051Z,79.81
2023-01-18T23:29:30.805Z,80.17
2023-01-18T23:31:58.450Z,80.24
2023-01-18T23:34:25.732Z,80.24
2023-01-18T23:36:53.060Z,80.53
2023-01-18T23:39:38.595Z,80.29
2023-01-18T23:42:24.264Z,79.90
2023-01-18T23:45:10.370Z,80.33
2023-01-18T23:47:55.875Z,80.10
2023-01-18T23:50:41.472Z,79.74
2023-01-18T23:53:30.766Z,79.72
2023-01-18T23:55:57.972Z,79.67
2023-01-18T23:58:24.889Z,79.82
